Friendship, IN (47021)

11:54 AM EDT on March 26, 2017 (GMT -0400)
KINDILLS2 | | Change Station

Elev 840 ft 39.00 °N, 85.02 °W | Updated 9 seconds ago

Overcast
Overcast
57.0 °F
Feels Like 57.0 °F
N
0.0
Wind Variable Wind from SSE
Gusts 4.0 mph

Today
High -- | Low -- °F
--% Chance of Precip.
Yesterday
High -- | Low -- °F
Precip. -- in
Pressure 29.97 in
Visibility 3.0 miles
Clouds Mostly Cloudy 2600 ft
Overcast 6000 ft
Dew Point 56 °F
Humidity 97%
Rainfall 0.07 in
Snow Depth Not available.
7:34 AM 7:58 PM
Waning Crescent, 3% visible
METAR KCVG 261552Z 16006KT 3SM RA BR BKN026 OVC060 14/14 A2998 RMK AO2 SLP148 P0021 T01440139 $
Pressure 29.97 in
Visibility 3.0 miles
Clouds Mostly Cloudy 2600 ft
Overcast 6000 ft
Dew Point 56 °F
Humidity 97%
Rainfall 0.07 in
Snow Depth Not available.
7:34 AM 7:58 PM
Waning Crescent, 3% visible
METAR KCVG 261552Z 16006KT 3SM RA BR BKN026 OVC060 14/14 A2998 RMK AO2 SLP148 P0021 T01440139 $

Get Severe Weather Alerts

Thanks for signing up!

Be on the lookout for a verification email in your inbox.

You'll start receiving the daily forecast at 8 AM.

×

10-Day Weather Forecast

Almanac

Astronomy

Mar. 26, 2017 Rise Set
Actual Time
Civil Twilight
Nautical Twilight
Astronomical Twilight
Moon
Length of Visible Light
Length of Day
Tomorrow will be .
, % of the Moon is Illuminated

Today's Extremes

State Highs State Lows

Community

WunderPhotos

Upload Photos

1,962,540 photos uploaded!

WunderBlog® & News

Nearby

Air Quality

  Air Quality AQ Index Pollutant
Not available.

Snow Depth

Station Depth Elevation

Earthquake Activity

City Distance Mag. Time & Date
Minimum magnitude displayed is 2.5.

Earthquake Activity

City Distance Mag. Time & Date
Minimum magnitude displayed is 2.5.

Coastal Water Temperatures

Place Temperature

Stations

Nearby Weather Stations

Station Location Temp. Windchill Dew Point Humidity Wind Precip. Elev Updated Type
                   

Watches & Warnings

There are currently no watches in effect.